Time;durP1;ratioP1;P1;durP2;ratioP2;P2;SDS_P1;SDS_P2;PMS_P1;PMS_P2;Temp;Humidity;BMP_temperature;BMP_pressure;BME280_temperature;BME280_humidity;BME280_pressure;Samples;Min_cycle;Max_cycle;Signal;HPM_P1;HPM_P2
2024/04/05 00:00:24;;;;;;;0.50;0.50;;;;;;;10.92;100.00;96805.78;29395;236;63009;-54
2024/04/05 00:00:55;;;;;;;0.50;0.50;;;;;;;10.93;100.00;96802.78;29395;198;63004;-53
2024/04/05 00:01:27;;;;;;;0.50;0.50;;;;;;;10.93;100.00;96805.50;29395;204;63009;-53
2024/04/05 00:01:59;;;;;;;0.50;0.50;;;;;;;10.95;100.00;96806.00;29395;248;63009;-54
2024/04/05 00:02:32;;;;;;;0.50;0.50;;;;;;;10.99;100.00;96801.59;29395;196;63008;-54
2024/04/05 00:03:04;;;;;;;0.50;0.50;;;;;;;11.02;100.00;96806.44;29394;219;64008;-54
2024/04/05 00:03:35;;;;;;;0.50;0.50;;;;;;;11.02;100.00;96800.19;29395;303;63027;-53
2024/04/05 00:04:08;;;;;;;0.40;0.40;;;;;;;11.02;100.00;96803.72;29395;198;63010;-54
2024/04/05 00:04:39;;;;;;;0.45;0.45;;;;;;;11.04;100.00;96806.13;29395;241;63009;-54
2024/04/05 00:05:13;;;;;;;0.50;0.50;;;;;;;11.05;100.00;96802.31;29394;199;64009;-53
2024/04/05 00:05:44;;;;;;;0.50;0.50;;;;;;;11.06;100.00;96802.03;29395;262;63009;-54
2024/04/05 00:06:16;;;;;;;0.50;0.50;;;;;;;11.06;100.00;96801.22;29395;211;63005;-53
2024/04/05 00:06:47;;;;;;;0.50;0.50;;;;;;;11.07;100.00;96802.81;29395;216;63009;-53
2024/04/05 00:07:18;;;;;;;0.50;0.50;;;;;;;11.06;100.00;96793.06;29395;222;63004;-54
2024/04/05 00:07:49;;;;;;;0.50;0.50;;;;;;;11.07;100.00;96794.69;29395;202;63009;-54
2024/04/05 00:08:24;;;;;;;0.50;0.50;;;;;;;11.06;100.00;96793.06;29395;229;63004;-54
2024/04/05 00:08:55;;;;;;;0.45;0.45;;;;;;;11.06;100.00;96798.50;29395;198;63009;-54
2024/04/05 00:09:27;;;;;;;0.50;0.50;;;;;;;11.07;100.00;96791.97;29395;256;63004;-53
2024/04/05 00:09:59;;;;;;;0.40;0.40;;;;;;;11.07;100.00;96797.41;29395;252;63009;-54
2024/04/05 00:10:30;;;;;;;0.50;0.50;;;;;;;11.11;100.00;96803.00;29394;220;64009;-53
2024/04/05 00:11:02;;;;;;;0.50;0.50;;;;;;;11.09;100.00;96797.88;29395;203;63009;-54
2024/04/05 00:11:34;;;;;;;0.50;0.50;;;;;;;11.10;100.00;96796.78;29395;197;63018;-55
2024/04/05 00:12:06;;;;;;;0.50;0.50;;;;;;;11.11;100.00;96798.38;29395;209;63009;-54
2024/04/05 00:12:37;;;;;;;0.50;0.50;;;;;;;11.11;100.00;96798.38;29395;219;63005;-54
2024/04/05 00:13:08;;;;;;;0.40;0.40;;;;;;;11.09;100.00;96795.97;29395;203;63009;-53
2024/04/05 00:13:40;;;;;;;0.50;0.50;;;;;;;11.10;100.00;96802.19;29395;205;63005;-54
2024/04/05 00:14:11;;;;;;;0.50;0.50;;;;;;;11.10;100.00;96791.34;29395;215;63009;-53
2024/04/05 00:14:43;;;;;;;0.50;0.50;;;;;;;11.09;100.00;96798.69;29394;206;64009;-69
2024/04/05 00:15:17;;;;;;;0.50;0.50;;;;;;;11.09;100.00;96804.09;29395;197;63009;-53
2024/04/05 00:15:48;;;;;;;0.50;0.50;;;;;;;11.08;100.00;96805.25;29395;202;63004;-53
2024/04/05 00:16:19;;;;;;;0.50;0.50;;;;;;;11.09;100.00;96806.03;29395;209;63009;-54
2024/04/05 00:16:51;;;;;;;0.50;0.50;;;;;;;11.11;100.00;96806.53;29394;202;64008;-53
2024/04/05 00:17:23;;;;;;;0.50;0.50;;;;;;;11.14;100.00;96805.13;29395;241;63008;-54
2024/04/05 00:17:54;;;;;;;0.50;0.50;;;;;;;11.13;100.00;96801.59;29395;211;63012;-54
2024/04/05 00:18:26;;;;;;;0.50;0.50;;;;;;;11.14;100.00;96807.84;29395;211;63009;-54
2024/04/05 00:18:57;;;;;;;0.40;0.40;;;;;;;11.13;100.00;96807.03;29395;217;63010;-53
2024/04/05 00:19:29;;;;;;;0.43;0.43;;;;;;;11.12;100.00;96810.84;29395;196;63009;-53
2024/04/05 00:20:00;;;;;;;0.50;0.50;;;;;;;11.14;100.00;96807.84;29395;216;63005;-54
2024/04/05 00:20:31;;;;;;;0.50;0.50;;;;;;;11.14;100.00;96808.66;29395;202;63009;-53
2024/04/05 00:21:04;;;;;;;0.50;0.50;;;;;;;11.14;100.00;96808.66;29395;203;63005;-53
2024/04/05 00:21:37;;;;;;;0.50;0.50;;;;;;;11.13;100.00;96809.75;29395;224;63009;-53
2024/04/05 00:22:08;;;;;;;0.50;0.50;;;;;;;11.13;100.00;96806.22;29394;372;64009;-54
2024/04/05 00:22:40;;;;;;;0.50;0.50;;;;;;;11.13;100.00;96812.47;29395;209;63009;-54
2024/04/05 00:23:11;;;;;;;0.50;0.50;;;;;;;11.13;100.00;96806.22;29395;204;63010;-54
2024/04/05 00:23:42;;;;;;;0.50;0.50;;;;;;;11.11;100.00;96798.38;29395;206;63017;-53
2024/04/05 00:24:14;;;;;;;0.50;0.50;;;;;;;11.11;100.00;96800.28;29395;253;63004;-53
2024/04/05 00:24:45;;;;;;;0.50;0.50;;;;;;;11.11;100.00;96803.81;29395;201;63008;-69
2024/04/05 00:25:20;;;;;;;0.50;0.50;;;;;;;11.11;100.00;96806.53;29395;215;63001;-53
2024/04/05 00:26:05;;;;;;;0.50;0.50;;;;;;;11.10;100.00;96807.63;29395;232;63013;-69
2024/04/05 00:26:36;;;;;;;0.50;0.50;;;;;;;11.10;100.00;96802.19;29395;241;63005;-53
2024/04/05 00:27:17;;;;;;;0.50;0.50;;;;;;;11.09;100.00;96797.88;29416;222;64013;-53
2024/04/05 00:27:48;;;;;;;0.50;0.50;;;;;;;11.09;100.00;96800.59;29395;218;63005;-54
2024/04/05 00:28:19;;;;;;;0.50;0.50;;;;;;;11.08;100.00;96796.28;29395;243;63009;-53
2024/04/05 00:28:50;;;;;;;0.50;0.50;;;;;;;11.10;100.00;96796.78;29395;205;63005;-53
2024/04/05 00:29:21;;;;;;;0.50;0.50;;;;;;;11.10;100.00;96807.63;29395;242;63009;-53
2024/04/05 00:29:53;;;;;;;0.50;0.50;;;;;;;11.09;100.00;96795.16;29394;233;64009;-53
2024/04/05 00:30:24;;;;;;;0.50;0.50;;;;;;;11.12;100.00;96800.00;29395;251;63009;-53
2024/04/05 00:30:56;;;;;;;0.50;0.50;;;;;;;11.13;100.00;96796.19;29395;222;63004;-53
2024/04/05 00:31:27;;;;;;;0.50;0.50;;;;;;;11.13;100.00;96790.75;29395;227;63009;-53
2024/04/05 00:31:58;;;;;;;0.50;0.50;;;;;;;11.15;100.00;96798.59;29394;215;64008;-52
2024/04/05 00:32:30;;;;;;;0.50;0.50;;;;;;;11.17;100.00;96796.38;29395;222;63008;-52
2024/04/05 00:33:01;;;;;;;0.77;0.77;;;;;;;11.16;100.00;96795.59;29395;218;63005;-53
2024/04/05 00:33:33;;;;;;;0.50;0.50;;;;;;;11.16;100.00;96795.59;29395;242;63009;-53
2024/04/05 00:34:04;;;;;;;0.40;0.40;;;;;;;11.14;100.00;96792.34;29395;320;63005;-53
2024/04/05 00:34:35;;;;;;;0.50;0.50;;;;;;;11.16;100.00;96792.87;29395;214;63018;-53
2024/04/05 00:35:07;;;;;;;0.50;0.50;;;;;;;11.15;100.00;96793.97;29395;203;63005;-53
2024/04/05 00:35:55;;;;;;;0.50;0.50;;;;;;;11.16;100.00;96795.59;29394;227;64013;-53
2024/04/05 00:36:26;;;;;;;0.50;0.50;;;;;;;11.16;100.00;96784.72;29395;307;63005;-69
2024/04/05 00:36:57;;;;;;;0.50;0.50;;;;;;;11.15;100.00;96788.53;29395;248;63009;-53
2024/04/05 00:37:29;;;;;;;0.50;0.50;;;;;;;11.16;100.00;96787.44;29395;262;63004;-53
2024/04/05 00:38:00;;;;;;;0.50;0.50;;;;;;;11.16;100.00;96783.91;29395;204;63024;-53
2024/04/05 00:38:31;;;;;;;0.50;0.50;;;;;;;11.14;100.00;96781.50;29395;303;63004;-53
2024/04/05 00:39:03;;;;;;;0.50;0.50;;;;;;;11.14;100.00;96786.94;29394;210;64013;-53
2024/04/05 00:39:34;;;;;;;0.50;0.50;;;;;;;11.14;100.00;96777.97;29395;206;63004;-53
2024/04/05 00:40:07;;;;;;;0.50;0.50;;;;;;;11.13;100.00;96785.31;29395;350;63008;-52
2024/04/05 00:40:38;;;;;;;0.50;0.50;;;;;;;11.15;100.00;96787.72;29394;197;64009;-53
2024/04/05 00:41:09;;;;;;;0.50;0.50;;;;;;;11.15;100.00;96788.53;29395;286;63009;-53
2024/04/05 00:41:41;;;;;;;0.50;0.50;;;;;;;11.15;100.00;96788.53;29395;216;63005;-53
2024/04/05 00:42:12;;;;;;;0.50;0.50;;;;;;;11.15;100.00;96790.44;29395;219;63009;-54
2024/04/05 00:42:43;;;;;;;0.40;0.40;;;;;;;11.15;100.00;96785.81;29395;318;63005;-53
2024/04/05 00:43:15;;;;;;;0.50;0.50;;;;;;;11.15;100.00;96783.09;29394;247;64013;-53
2024/04/05 00:43:47;;;;;;;0.50;0.50;;;;;;;11.16;100.00;96789.34;29395;218;63005;-53
2024/04/05 00:44:18;;;;;;;0.40;0.40;;;;;;;11.15;100.00;96787.72;29395;275;63009;-53
2024/04/05 00:44:49;;;;;;;0.50;0.50;;;;;;;11.15;100.00;96785.81;29395;210;63004;-53
2024/04/05 00:45:20;;;;;;;0.50;0.50;;;;;;;11.15;100.00;96783.09;29395;218;63009;-54
2024/04/05 00:45:52;;;;;;;0.50;0.50;;;;;;;11.15;100.00;96783.09;29395;218;63004;-54
2024/04/05 00:46:23;;;;;;;0.50;0.50;;;;;;;11.16;100.00;96783.91;29394;260;64013;-54
2024/04/05 00:46:55;;;;;;;0.50;0.50;;;;;;;11.16;100.00;96783.91;29395;209;63004;-55
2024/04/05 00:47:26;;;;;;;0.50;0.50;;;;;;;11.15;100.00;96783.09;29395;208;63008;-70
2024/04/05 00:47:58;;;;;;;0.50;0.50;;;;;;;11.16;100.00;96784.72;29395;224;63008;-54
2024/04/05 00:48:33;;;;;;;0.50;0.50;;;;;;;11.17;100.00;96782.81;29395;197;63009;-54
2024/04/05 00:49:04;;;;;;;0.50;0.50;;;;;;;11.19;100.00;96783.31;29394;239;64009;-54
2024/04/05 00:49:38;;;;;;;0.50;0.50;;;;;;;11.19;100.00;96783.31;29395;246;63005;-54
2024/04/05 00:50:10;;;;;;;0.50;0.50;;;;;;;11.18;100.00;96776.28;29395;213;63005;-54
2024/04/05 00:50:42;;;;;;;0.50;0.50;;;;;;;11.18;100.00;96776.28;29395;214;63009;-53
2024/04/05 00:51:13;;;;;;;0.50;0.50;;;;;;;11.18;100.00;96777.09;29395;280;63010;-53
2024/04/05 00:51:44;;;;;;;0.50;0.50;;;;;;;11.18;100.00;96777.09;29394;280;64013;-54
2024/04/05 00:52:17;;;;;;;0.50;0.50;;;;;;;11.18;100.00;96777.09;29395;231;63004;-53
2024/04/05 00:52:50;;;;;;;0.50;0.50;;;;;;;11.18;100.00;96782.50;29395;218;63009;-53
2024/04/05 00:53:31;;;;;;;0.50;0.50;;;;;;;11.19;100.00;96784.13;29395;247;63004;-54
2024/04/05 00:54:04;;;;;;;0.50;0.50;;;;;;;11.18;100.00;96782.50;29417;237;63025;-54
2024/04/05 00:54:36;;;;;;;0.50;0.50;;;;;;;11.17;100.00;96775.47;29395;219;63015;-54
2024/04/05 00:55:07;;;;;;;0.50;0.50;;;;;;;11.18;100.00;96779.78;29395;222;63008;-54
2024/04/05 00:55:40;;;;;;;0.50;0.50;;;;;;;11.19;100.00;96780.59;29395;304;63005;-54
2024/04/05 00:56:12;;;;;;;0.47;0.47;;;;;;;11.21;100.00;96787.34;29395;199;63009;-54
2024/04/05 00:56:44;;;;;;;0.50;0.50;;;;;;;11.22;100.00;96778.09;29394;197;64009;-54
2024/04/05 00:57:15;;;;;;;0.50;0.50;;;;;;;11.21;100.00;96781.91;29395;224;63009;-53
2024/04/05 00:57:49;;;;;;;0.50;0.50;;;;;;;11.21;100.00;96781.91;29395;397;63005;-53
2024/04/05 00:58:22;;;;;;;0.50;0.50;;;;;;;11.19;100.00;96778.69;29395;203;63009;-54
2024/04/05 00:58:53;;;;;;;0.50;0.50;;;;;;;11.19;100.00;96784.13;29395;211;63010;-53
2024/04/05 00:59:26;;;;;;;0.40;0.40;;;;;;;11.18;100.00;96779.00;29394;211;64013;-53
2024/04/05 00:59:59;;;;;;;0.40;0.40;;;;;;;11.17;100.00;96770.03;29395;246;63004;-54
2024/04/05 01:00:32;;;;;;;0.50;0.50;;;;;;;11.16;100.00;96768.44;29394;204;64013;-54
2024/04/05 01:01:04;;;;;;;0.50;0.50;;;;;;;11.15;100.00;96772.25;29395;230;63004;-53
2024/04/05 01:01:36;;;;;;;0.45;0.45;;;;;;;11.15;100.00;96777.69;29395;213;63009;-54
2024/04/05 01:02:08;;;;;;;0.50;0.50;;;;;;;11.17;100.00;96775.47;29395;215;63004;-54
2024/04/05 01:02:39;;;;;;;0.50;0.50;;;;;;;11.17;100.00;96775.47;29395;202;63008;-54
2024/04/05 01:03:11;;;;;;;0.50;0.50;;;;;;;11.17;100.00;96770.03;29395;280;63005;-53
2024/04/05 01:03:42;;;;;;;0.50;0.50;;;;;;;11.20;100.00;96768.63;29395;233;63009;-54
2024/04/05 01:04:13;;;;;;;0.50;0.50;;;;;;;11.19;100.00;96773.25;29395;245;63000;-54
2024/04/05 01:04:45;;;;;;;0.50;0.50;;;;;;;11.20;100.00;96764.00;29395;219;63009;-54
2024/04/05 01:05:17;;;;;;;0.50;0.50;;;;;;;11.22;100.00;96767.22;29394;224;64009;-54
2024/04/05 01:05:49;;;;;;;0.50;0.50;;;;;;;11.22;100.00;96761.81;29395;255;63009;-54
2024/04/05 01:06:21;;;;;;;0.50;0.50;;;;;;;11.24;100.00;96770.47;29395;278;63004;-54
2024/04/05 01:06:53;;;;;;;0.50;0.50;;;;;;;11.24;100.00;96764.22;29394;239;64009;-55
2024/04/05 01:07:24;;;;;;;0.50;0.50;;;;;;;11.26;100.00;96762.00;29395;207;63004;-54
2024/04/05 01:07:56;;;;;;;0.45;0.45;;;;;;;11.27;100.00;96769.87;29395;223;63009;-55
2024/04/05 01:08:28;;;;;;;0.45;0.45;;;;;;;11.28;100.00;96759.81;29394;228;64009;-54
2024/04/05 01:09:00;;;;;;;0.50;0.50;;;;;;;11.30;100.00;96763.84;29395;216;63008;-54
2024/04/05 01:09:31;;;;;;;0.50;0.50;;;;;;;11.29;100.00;96755.97;29395;241;63004;-54
2024/04/05 01:10:03;;;;;;;0.50;0.50;;;;;;;11.29;100.00;96767.66;29395;215;63008;-52
2024/04/05 01:10:35;;;;;;;0.50;0.50;;;;;;;11.28;100.00;96771.47;29395;225;63005;-55
2024/04/05 01:11:07;;;;;;;0.40;0.40;;;;;;;11.28;100.00;96766.03;29395;203;63012;-54
2024/04/05 01:11:38;;;;;;;0.50;0.50;;;;;;;11.29;100.00;96764.13;29395;233;63005;-54
2024/04/05 01:12:09;;;;;;;0.50;0.50;;;;;;;11.29;100.00;96759.50;29395;281;63009;-69
2024/04/05 01:12:40;;;;;;;0.40;0.40;;;;;;;11.28;100.00;96765.22;29395;210;63005;-72
2024/04/05 01:13:13;;;;;;;0.50;0.50;;;;;;;11.28;100.00;96757.88;29394;205;64013;-54
2024/04/05 01:13:47;;;;;;;0.47;0.47;;;;;;;11.28;100.00;96766.03;29394;221;64009;-53
2024/04/05 01:14:18;;;;;;;0.47;0.47;;;;;;;11.26;100.00;96757.38;29395;242;63025;-54
2024/04/05 01:14:50;;;;;;;0.45;0.45;;;;;;;11.27;100.00;96763.63;29395;272;63004;-54
2024/04/05 01:15:21;;;;;;;0.40;0.40;;;;;;;11.26;100.00;96765.53;29395;226;63009;-54
2024/04/05 01:15:53;;;;;;;0.40;0.40;;;;;;;11.25;100.00;96766.63;29395;218;63004;-53
2024/04/05 01:16:24;;;;;;;0.50;0.50;;;;;;;11.26;100.00;96767.44;29395;218;63008;-54
2024/04/05 01:16:55;;;;;;;0.40;0.40;;;;;;;11.25;100.00;96763.91;29395;209;63004;-54
2024/04/05 01:17:26;;;;;;;0.40;0.40;;;;;;;11.26;100.00;96764.72;29395;223;63009;-54
2024/04/05 01:18:04;;;;;;;0.50;0.50;;;;;;;11.23;100.00;96771.56;29395;269;63005;-54
2024/04/05 01:18:36;;;;;;;0.40;0.40;;;;;;;11.23;100.00;96768.03;29394;206;64014;-54
2024/04/05 01:19:08;;;;;;;0.40;0.40;;;;;;;11.24;100.00;96765.03;29395;206;63005;-69
2024/04/05 01:19:42;;;;;;;0.50;0.50;;;;;;;11.26;100.00;96768.25;29394;245;64013;-54
2024/04/05 01:20:18;;;;;;;0.43;0.43;;;;;;;11.28;100.00;96768.75;29395;206;63008;-54
2024/04/05 01:20:52;;;;;;;0.50;0.50;;;;;;;11.28;100.00;96771.47;29395;221;63009;-55
2024/04/05 01:21:25;;;;;;;0.50;0.50;;;;;;;11.29;100.00;96773.09;29395;218;63004;-54
2024/04/05 01:21:57;;;;;;;0.50;0.50;;;;;;;11.27;100.00;96769.87;29394;236;64013;-55
2024/04/05 01:22:34;;;;;;;0.50;0.50;;;;;;;11.29;100.00;96766.84;29395;247;63004;-54
2024/04/05 01:23:07;;;;;;;0.50;0.50;;;;;;;11.27;100.00;96769.87;29395;229;63012;-55
2024/04/05 01:23:42;;;;;;;0.50;0.50;;;;;;;11.26;100.00;96773.69;29395;222;63004;-56
2024/04/05 01:24:14;;;;;;;0.50;0.50;;;;;;;11.30;100.00;96768.47;29395;199;63008;-54
2024/04/05 01:24:45;;;;;;;0.50;0.50;;;;;;;11.32;100.00;96774.41;29394;320;64009;-54
2024/04/05 01:25:18;;;;;;;0.50;0.50;;;;;;;11.30;100.00;96774.69;29395;209;63009;-54
2024/04/05 01:25:51;;;;;;;0.50;0.50;;;;;;;11.33;100.00;96770.56;29394;222;64009;-54
2024/04/05 01:26:22;;;;;;;0.50;0.50;;;;;;;11.34;100.00;96772.19;29395;249;63009;-54
2024/04/05 01:26:53;;;;;;;0.50;0.50;;;;;;;11.34;100.00;96770.28;29395;211;63005;-54
2024/04/05 01:27:24;;;;;;;0.50;0.50;;;;;;;11.34;100.00;96775.72;29395;384;63009;-71
2024/04/05 01:27:56;;;;;;;0.50;0.50;;;;;;;11.35;100.00;96774.59;29394;265;64005;-54
2024/04/05 01:28:27;;;;;;;0.50;0.50;;;;;;;11.35;100.00;96766.47;29395;212;63009;-54
2024/04/05 01:28:58;;;;;;;0.50;0.50;;;;;;;11.35;100.00;96769.16;29395;255;63004;-68
2024/04/05 01:29:29;;;;;;;0.50;0.50;;;;;;;11.36;100.00;96769.97;29394;203;64013;-54
2024/04/05 01:30:01;;;;;;;0.50;0.50;;;;;;;11.34;100.00;96775.72;29395;227;63004;-54
2024/04/05 01:30:32;;;;;;;0.50;0.50;;;;;;;11.33;100.00;96771.38;29394;218;64013;-54
2024/04/05 01:31:05;;;;;;;0.50;0.50;;;;;;;11.30;100.00;96774.69;29395;224;63004;-55
2024/04/05 01:31:37;;;;;;;0.45;0.45;;;;;;;11.30;100.00;96768.47;29394;274;64013;-54
2024/04/05 01:32:08;;;;;;;0.43;0.43;;;;;;;11.29;100.00;96770.37;29395;196;63001;-69
2024/04/05 01:32:39;;;;;;;0.50;0.50;;;;;;;11.31;100.00;96768.16;29395;237;63013;-55
2024/04/05 01:33:11;;;;;;;0.50;0.50;;;;;;;11.31;100.00;96765.44;29395;357;63005;-70
2024/04/05 01:33:42;;;;;;;0.50;0.50;;;;;;;11.31;100.00;96772.78;29394;226;64014;-54
2024/04/05 01:34:14;;;;;;;0.50;0.50;;;;;;;11.34;100.00;96769.47;29395;306;63005;-55
2024/04/05 01:34:45;;;;;;;0.50;0.50;;;;;;;11.33;100.00;96765.94;29395;197;63026;-54
2024/04/05 01:35:16;;;;;;;0.47;0.47;;;;;;;11.33;100.00;96768.66;29395;217;63005;-66
2024/04/05 01:35:47;;;;;;;0.50;0.50;;;;;;;11.35;100.00;96766.47;29395;262;63009;-54
2024/04/05 01:36:19;;;;;;;0.50;0.50;;;;;;;11.37;100.00;96763.44;29394;208;64009;-54
2024/04/05 01:36:50;;;;;;;0.50;0.50;;;;;;;11.39;100.00;96772.09;29394;249;64013;-55
2024/04/05 01:37:21;;;;;;;0.50;0.50;;;;;;;11.38;100.00;96765.84;29395;243;63007;-53
2024/04/05 01:37:54;;;;;;;0.50;0.50;;;;;;;11.38;100.00;96773.19;29395;241;63009;-54
2024/04/05 01:38:25;;;;;;;0.50;0.50;;;;;;;11.38;100.00;96765.06;29395;223;63004;-54
2024/04/05 01:38:56;;;;;;;0.50;0.50;;;;;;;11.36;100.00;96768.06;29395;225;63008;-54
2024/04/05 01:39:29;;;;;;;0.50;0.50;;;;;;;11.37;100.00;96769.69;29395;210;63004;-54
2024/04/05 01:40:00;;;;;;;0.50;0.50;;;;;;;11.36;100.00;96761.84;29394;203;64014;-54
2024/04/05 01:40:31;;;;;;;0.50;0.50;;;;;;;11.34;100.00;96766.75;29395;202;63009;-54
2024/04/05 01:41:03;;;;;;;0.50;0.50;;;;;;;11.34;100.00;96758.59;29395;225;63009;-67
2024/04/05 01:41:36;;;;;;;0.50;0.50;;;;;;;11.30;100.00;96766.53;29395;205;63005;-56
2024/04/05 01:42:07;;;;;;;0.50;0.50;;;;;;;11.28;100.00;96766.03;29394;265;64013;-54
2024/04/05 01:42:38;;;;;;;0.50;0.50;;;;;;;11.28;100.00;96765.22;29395;199;63005;-54
2024/04/05 01:43:10;;;;;;;0.50;0.50;;;;;;;11.27;100.00;96764.44;29394;243;64013;-54
2024/04/05 01:43:41;;;;;;;0.50;0.50;;;;;;;11.27;100.00;96759.00;29395;240;63005;-55
2024/04/05 01:44:12;;;;;;;0.43;0.43;;;;;;;11.27;100.00;96758.19;29395;242;63009;-55
2024/04/05 01:44:43;;;;;;;0.50;0.50;;;;;;;11.30;100.00;96755.69;29395;203;63004;-54
2024/04/05 01:45:14;;;;;;;0.50;0.50;;;;;;;11.30;100.00;96758.41;29395;204;63009;-54
2024/04/05 01:45:46;;;;;;;0.50;0.50;;;;;;;11.31;100.00;96754.56;29395;214;63004;-54
2024/04/05 01:46:18;;;;;;;0.40;0.40;;;;;;;11.30;100.00;96752.16;29395;199;63015;-55
2024/04/05 01:46:50;;;;;;;0.50;0.50;;;;;;;11.28;100.00;96755.19;29395;231;63004;-54
2024/04/05 01:47:21;;;;;;;0.50;0.50;;;;;;;11.28;100.00;96754.37;29395;232;63009;-54
2024/04/05 01:47:53;;;;;;;0.50;0.50;;;;;;;11.26;100.00;96757.38;29394;202;64023;-55
2024/04/05 01:48:24;;;;;;;0.50;0.50;;;;;;;11.26;100.00;96754.66;29395;215;63009;-54
2024/04/05 01:48:55;;;;;;;0.50;0.50;;;;;;;11.27;100.00;96758.19;29395;197;63017;-54
2024/04/05 01:49:26;;;;;;;0.50;0.50;;;;;;;11.24;100.00;96748.72;29395;243;63009;-54
2024/04/05 01:49:58;;;;;;;0.40;0.40;;;;;;;11.24;100.00;96759.59;29395;257;63005;-54
2024/04/05 01:50:30;;;;;;;0.50;0.50;;;;;;;11.24;100.00;96748.72;29395;206;63014;-54
2024/04/05 01:51:01;;;;;;;0.50;0.50;;;;;;;11.26;100.00;96751.94;29395;218;63005;-54
2024/04/05 01:51:32;;;;;;;0.50;0.50;;;;;;;11.25;100.00;96741.38;29395;275;63009;-54
2024/04/05 01:52:04;;;;;;;0.50;0.50;;;;;;;11.22;100.00;96745.50;29394;213;64009;-53
2024/04/05 01:52:38;;;;;;;0.50;0.50;;;;;;;11.21;100.00;96749.31;29395;199;63018;-54
2024/04/05 01:53:09;;;;;;;0.50;0.50;;;;;;;11.20;100.00;96747.72;29395;271;63004;-54
2024/04/05 01:53:41;;;;;;;0.50;0.50;;;;;;;11.20;100.00;96750.44;29395;206;63009;-54
2024/04/05 01:54:12;;;;;;;0.50;0.50;;;;;;;11.18;100.00;96744.50;29395;214;63004;-54
2024/04/05 01:54:44;;;;;;;0.50;0.50;;;;;;;11.17;100.00;96742.88;29395;206;63008;-55
2024/04/05 01:55:15;;;;;;;0.50;0.50;;;;;;;11.15;100.00;96747.81;29395;231;63005;-53
2024/04/05 01:55:46;;;;;;;0.50;0.50;;;;;;;11.15;100.00;96744.28;29395;239;63009;-55
2024/04/05 01:56:17;;;;;;;0.50;0.50;;;;;;;11.13;100.00;96747.31;29395;222;63005;-54
2024/04/05 01:56:49;;;;;;;0.50;0.50;;;;;;;11.12;100.00;96745.69;29395;248;63012;-54
2024/04/05 01:57:20;;;;;;;0.50;0.50;;;;;;;11.11;100.00;96744.06;29394;238;64009;-54
2024/04/05 01:57:51;;;;;;;0.50;0.50;;;;;;;11.11;100.00;96743.28;29395;266;63009;-54
2024/04/05 01:58:22;;;;;;;0.50;0.50;;;;;;;11.10;100.00;96742.47;29395;250;63005;-54
2024/04/05 01:58:54;;;;;;;0.50;0.50;;;;;;;11.10;100.00;96739.75;29395;214;63009;-54
2024/04/05 01:59:25;;;;;;;0.47;0.47;;;;;;;11.09;100.00;96747.09;29395;228;63004;-54
2024/04/05 01:59:56;;;;;;;0.50;0.50;;;;;;;11.09;100.00;96740.84;29395;230;63009;-54
2024/04/05 02:00:29;;;;;;;0.50;0.50;;;;;;;11.08;100.00;96747.41;29395;237;63004;-54
2024/04/05 02:01:02;;;;;;;0.50;0.50;;;;;;;11.07;100.00;96743.09;29395;202;63017;-54
2024/04/05 02:01:34;;;;;;;0.40;0.40;;;;;;;11.06;100.00;96742.28;29395;242;63004;-54
2024/04/05 02:02:05;;;;;;;0.50;0.50;;;;;;;11.06;100.00;96736.03;29395;209;63008;-54
2024/04/05 02:02:39;;;;;;;0.50;0.50;;;;;;;11.07;100.00;96740.38;29394;212;64009;-54
2024/04/05 02:03:14;;;;;;;0.50;0.50;;;;;;;11.07;100.00;96743.09;29395;216;63009;-54
2024/04/05 02:03:45;;;;;;;0.50;0.50;;;;;;;11.07;100.00;96738.47;29395;203;63007;-54
2024/04/05 02:04:16;;;;;;;0.77;0.77;;;;;;;11.09;100.00;96740.84;29395;245;63009;-54
2024/04/05 02:04:52;;;;;;;0.50;0.50;;;;;;;11.11;100.00;96738.66;29395;246;63005;-54
2024/04/05 02:05:24;;;;;;;0.50;0.50;;;;;;;11.10;100.00;96739.75;29395;208;63023;-53
2024/04/05 02:05:55;;;;;;;0.50;0.50;;;;;;;11.12;100.00;96737.53;29395;218;63005;-54
2024/04/05 02:06:28;;;;;;;0.40;0.40;;;;;;;11.12;100.00;96734.81;29395;236;63009;-54
2024/04/05 02:06:59;;;;;;;0.50;0.50;;;;;;;11.12;100.00;96732.09;29395;207;63004;-54
2024/04/05 02:07:31;;;;;;;0.50;0.50;;;;;;;11.13;100.00;96741.88;29395;208;63009;-55
2024/04/05 02:08:03;;;;;;;0.50;0.50;;;;;;;11.12;100.00;96729.41;29394;258;64009;-55
2024/04/05 02:08:35;;;;;;;0.50;0.50;;;;;;;11.15;100.00;96739.66;29394;231;64013;-55
2024/04/05 02:09:06;;;;;;;1.02;1.02;;;;;;;11.18;100.00;96744.50;29395;326;63004;-54
2024/04/05 02:09:38;;;;;;;0.47;0.47;;;;;;;11.20;100.00;96736.84;29395;218;63008;-54
2024/04/05 02:10:09;;;;;;;0.50;0.50;;;;;;;11.21;100.00;96741.19;29395;208;63011;-54
2024/04/05 02:10:41;;;;;;;0.50;0.50;;;;;;;11.21;100.00;96733.03;29395;228;63009;-54
2024/04/05 02:11:12;;;;;;;0.50;0.50;;;;;;;11.21;100.00;96738.47;29395;223;63005;-54
2024/04/05 02:11:43;;;;;;;0.50;0.50;;;;;;;11.20;100.00;96736.84;29395;243;63009;-54
2024/04/05 02:12:15;;;;;;;0.45;0.45;;;;;;;11.19;100.00;96734.44;29395;213;63005;-54
2024/04/05 02:12:49;;;;;;;0.50;0.50;;;;;;;11.18;100.00;96733.63;29395;219;63009;-54
2024/04/05 02:13:21;;;;;;;0.40;0.40;;;;;;;11.18;100.00;96733.63;29394;214;64009;-54
2024/04/05 02:13:52;;;;;;;0.50;0.50;;;;;;;11.17;100.00;96733.94;29395;214;63009;-54
2024/04/05 02:14:23;;;;;;;0.50;0.50;;;;;;;11.17;100.00;96729.31;29395;367;63004;-54
2024/04/05 02:14:55;;;;;;;0.50;0.50;;;;;;;11.15;100.00;96734.22;29395;214;63009;-54
2024/04/05 02:15:26;;;;;;;0.50;0.50;;;;;;;11.19;100.00;96734.44;29394;206;64009;-54
2024/04/05 02:15:57;;;;;;;0.50;0.50;;;;;;;11.19;100.00;96735.25;29395;266;63008;-54
2024/04/05 02:16:29;;;;;;;0.50;0.50;;;;;;;11.19;100.00;96729.00;29395;227;63004;-54
2024/04/05 02:17:00;;;;;;;0.50;0.50;;;;;;;11.21;100.00;96740.38;29395;218;63008;-67
2024/04/05 02:17:31;;;;;;;0.60;0.60;;;;;;;11.22;100.00;96734.66;29394;213;64009;-54
2024/04/05 02:18:08;;;;;;;0.47;0.47;;;;;;;11.25;100.00;96735.97;29395;225;63009;-55
2024/04/05 02:18:39;;;;;;;0.50;0.50;;;;;;;11.25;100.00;96738.66;29395;305;63005;-70
2024/04/05 02:19:10;;;;;;;0.50;0.50;;;;;;;11.24;100.00;96737.88;29395;251;63009;-67
2024/04/05 02:19:44;;;;;;;0.50;0.50;;;;;;;11.23;100.00;96736.25;29395;244;63005;-55
2024/04/05 02:20:16;;;;;;;0.50;0.50;;;;;;;11.24;100.00;96737.88;29394;240;64013;-54
2024/04/05 02:20:57;;;;;;;0.50;0.50;;;;;;;11.32;100.00;96733.66;29395;222;63009;-55
2024/04/05 02:21:28;;;;;;;0.77;0.77;;;;;;;11.39;100.00;96734.88;29417;241;63009;-54
2024/04/05 02:21:59;;;;;;;0.70;0.70;;;;;;;11.41;100.00;96734.56;29395;224;63004;-54
2024/04/05 02:22:31;;;;;;;0.50;0.50;;;;;;;11.40;100.00;96731.06;29395;209;63009;-54
2024/04/05 02:23:02;;;;;;;0.50;0.50;;;;;;;11.36;100.00;96735.47;29395;213;63004;-55
2024/04/05 02:23:33;;;;;;;0.50;0.50;;;;;;;11.36;100.00;96740.91;29395;202;63008;-70
2024/04/05 02:24:05;;;;;;;0.50;0.50;;;;;;;11.35;100.00;96733.84;29395;370;63004;-54
2024/04/05 02:24:37;;;;;;;0.50;0.50;;;;;;;11.33;100.00;96736.06;29394;214;64014;-54
2024/04/05 02:25:10;;;;;;;0.50;0.50;;;;;;;11.33;100.00;96746.94;29395;239;63005;-54
2024/04/05 02:25:41;;;;;;;0.50;0.50;;;;;;;11.31;100.00;96735.56;29395;222;63009;-54
2024/04/05 02:26:12;;;;;;;0.50;0.50;;;;;;;11.27;100.00;96742.69;29394;220;64009;-54
2024/04/05 02:26:43;;;;;;;0.50;0.50;;;;;;;11.26;100.00;96745.72;29395;220;63009;-54
2024/04/05 02:27:16;;;;;;;0.47;0.47;;;;;;;11.23;100.00;96747.13;29395;227;63005;-54
2024/04/05 02:27:47;;;;;;;0.43;0.43;;;;;;;11.22;100.00;96739.28;29395;215;63009;-54
2024/04/05 02:28:19;;;;;;;0.50;0.50;;;;;;;11.23;100.00;96738.97;29395;228;63012;-54
2024/04/05 02:28:50;;;;;;;0.50;0.50;;;;;;;11.22;100.00;96734.66;29395;212;63009;-54
2024/04/05 02:29:22;;;;;;;0.50;0.50;;;;;;;11.21;100.00;96740.38;29395;218;63004;-54
2024/04/05 02:29:53;;;;;;;0.47;0.47;;;;;;;11.20;100.00;96747.72;29395;210;63009;-54
2024/04/05 02:30:24;;;;;;;0.50;0.50;;;;;;;11.20;100.00;96742.28;29395;196;63004;-53
2024/04/05 02:30:55;;;;;;;0.50;0.50;;;;;;;11.20;100.00;96738.75;29395;232;63008;-54